sensor_id;sensor_type;location;lat;lon;timestamp;P1;durP1;ratioP1;P2;durP2;ratioP2
69822;SDS011;57119;52.516;13.508;2022-11-20T00:01:05;25.92;;;10.77;;
69822;SDS011;57119;52.516;13.508;2022-11-20T00:03:35;18.27;;;8.63;;
69822;SDS011;57119;52.516;13.508;2022-11-20T00:06:05;19.00;;;9.05;;
69822;SDS011;57119;52.516;13.508;2022-11-20T00:08:32;20.23;;;8.90;;
69822;SDS011;57119;52.516;13.508;2022-11-20T00:11:11;19.48;;;9.55;;
69822;SDS011;57119;52.516;13.508;2022-11-20T00:13:38;18.70;;;8.63;;
69822;SDS011;57119;52.516;13.508;2022-11-20T00:16:04;20.60;;;9.23;;
69822;SDS011;57119;52.516;13.508;2022-11-20T00:18:35;19.20;;;8.85;;
69822;SDS011;57119;52.516;13.508;2022-11-20T00:21:01;21.52;;;8.48;;
69822;SDS011;57119;52.516;13.508;2022-11-20T00:23:28;18.23;;;8.13;;
69822;SDS011;57119;52.516;13.508;2022-11-20T00:25:53;18.52;;;8.38;;
69822;SDS011;57119;52.516;13.508;2022-11-20T00:28:19;18.40;;;7.70;;
69822;SDS011;57119;52.516;13.508;2022-11-20T00:30:44;17.60;;;8.10;;
69822;SDS011;57119;52.516;13.508;2022-11-20T00:33:10;20.53;;;8.67;;
69822;SDS011;57119;52.516;13.508;2022-11-20T00:35:35;19.85;;;8.43;;
69822;SDS011;57119;52.516;13.508;2022-11-20T00:38:01;16.83;;;7.90;;
69822;SDS011;57119;52.516;13.508;2022-11-20T00:40:26;20.45;;;7.13;;
69822;SDS011;57119;52.516;13.508;2022-11-20T00:42:52;16.37;;;7.20;;
69822;SDS011;57119;52.516;13.508;2022-11-20T00:45:18;17.05;;;7.82;;
69822;SDS011;57119;52.516;13.508;2022-11-20T00:47:43;22.97;;;9.00;;
69822;SDS011;57119;52.516;13.508;2022-11-20T00:50:09;16.10;;;7.13;;
69822;SDS011;57119;52.516;13.508;2022-11-20T00:52:34;17.40;;;7.50;;
69822;SDS011;57119;52.516;13.508;2022-11-20T00:54:59;17.48;;;8.07;;
69822;SDS011;57119;52.516;13.508;2022-11-20T00:57:25;19.80;;;9.02;;
69822;SDS011;57119;52.516;13.508;2022-11-20T00:59:50;21.03;;;8.17;;
69822;SDS011;57119;52.516;13.508;2022-11-20T01:02:15;16.13;;;7.23;;
69822;SDS011;57119;52.516;13.508;2022-11-20T01:04:41;19.10;;;8.57;;
69822;SDS011;57119;52.516;13.508;2022-11-20T01:07:07;16.65;;;8.00;;
69822;SDS011;57119;52.516;13.508;2022-11-20T01:09:32;17.23;;;8.50;;
69822;SDS011;57119;52.516;13.508;2022-11-20T01:11:58;19.23;;;9.17;;
69822;SDS011;57119;52.516;13.508;2022-11-20T01:14:24;17.70;;;8.50;;
69822;SDS011;57119;52.516;13.508;2022-11-20T01:16:49;17.23;;;8.03;;
69822;SDS011;57119;52.516;13.508;2022-11-20T01:19:20;15.77;;;7.32;;
69822;SDS011;57119;52.516;13.508;2022-11-20T01:21:48;19.25;;;8.50;;
69822;SDS011;57119;52.516;13.508;2022-11-20T01:24:16;18.23;;;8.25;;
69822;SDS011;57119;52.516;13.508;2022-11-20T01:26:43;20.52;;;8.18;;
69822;SDS011;57119;52.516;13.508;2022-11-20T01:29:12;19.50;;;8.52;;
69822;SDS011;57119;52.516;13.508;2022-11-20T01:31:40;20.50;;;8.65;;
69822;SDS011;57119;52.516;13.508;2022-11-20T01:34:07;18.25;;;9.00;;
69822;SDS011;57119;52.516;13.508;2022-11-20T01:36:39;15.75;;;7.85;;
69822;SDS011;57119;52.516;13.508;2022-11-20T01:39:12;16.98;;;7.95;;
69822;SDS011;57119;52.516;13.508;2022-11-20T01:41:38;19.05;;;8.45;;
69822;SDS011;57119;52.516;13.508;2022-11-20T01:44:41;18.15;;;7.60;;
69822;SDS011;57119;52.516;13.508;2022-11-20T01:49:51;20.23;;;9.20;;
69822;SDS011;57119;52.516;13.508;2022-11-20T01:52:30;22.70;;;8.60;;
69822;SDS011;57119;52.516;13.508;2022-11-20T01:55:03;17.35;;;8.68;;
69822;SDS011;57119;52.516;13.508;2022-11-20T01:57:33;18.35;;;8.75;;
69822;SDS011;57119;52.516;13.508;2022-11-20T02:00:10;18.23;;;8.57;;
69822;SDS011;57119;52.516;13.508;2022-11-20T02:02:37;18.48;;;9.05;;
69822;SDS011;57119;52.516;13.508;2022-11-20T02:05:12;17.60;;;8.60;;
69822;SDS011;57119;52.516;13.508;2022-11-20T02:07:45;18.88;;;8.52;;
69822;SDS011;57119;52.516;13.508;2022-11-20T02:10:11;17.40;;;8.63;;
69822;SDS011;57119;52.516;13.508;2022-11-20T02:12:37;17.77;;;7.85;;
69822;SDS011;57119;52.516;13.508;2022-11-20T02:15:21;18.80;;;7.87;;
69822;SDS011;57119;52.516;13.508;2022-11-20T02:17:46;19.63;;;9.13;;
69822;SDS011;57119;52.516;13.508;2022-11-20T02:20:12;19.47;;;9.63;;
69822;SDS011;57119;52.516;13.508;2022-11-20T02:22:39;17.38;;;8.32;;
69822;SDS011;57119;52.516;13.508;2022-11-20T02:25:28;17.13;;;8.13;;
69822;SDS011;57119;52.516;13.508;2022-11-20T02:27:55;18.65;;;8.07;;
69822;SDS011;57119;52.516;13.508;2022-11-20T02:30:21;18.73;;;8.97;;
69822;SDS011;57119;52.516;13.508;2022-11-20T02:32:46;18.60;;;8.75;;
69822;SDS011;57119;52.516;13.508;2022-11-20T02:37:43;18.00;;;8.37;;
69822;SDS011;57119;52.516;13.508;2022-11-20T02:40:12;18.25;;;8.40;;
69822;SDS011;57119;52.516;13.508;2022-11-20T02:42:38;19.00;;;8.68;;
69822;SDS011;57119;52.516;13.508;2022-11-20T02:45:04;21.73;;;8.43;;
69822;SDS011;57119;52.516;13.508;2022-11-20T02:47:30;20.70;;;9.43;;
69822;SDS011;57119;52.516;13.508;2022-11-20T02:49:55;22.53;;;9.53;;
69822;SDS011;57119;52.516;13.508;2022-11-20T02:52:21;18.27;;;8.63;;
69822;SDS011;57119;52.516;13.508;2022-11-20T02:54:46;19.88;;;8.40;;
69822;SDS011;57119;52.516;13.508;2022-11-20T02:57:12;18.90;;;8.90;;
69822;SDS011;57119;52.516;13.508;2022-11-20T02:59:37;19.53;;;7.60;;
69822;SDS011;57119;52.516;13.508;2022-11-20T03:02:02;19.33;;;8.17;;
69822;SDS011;57119;52.516;13.508;2022-11-20T03:04:28;20.97;;;8.10;;
69822;SDS011;57119;52.516;13.508;2022-11-20T03:06:53;17.97;;;8.60;;
69822;SDS011;57119;52.516;13.508;2022-11-20T03:09:18;18.33;;;8.00;;
69822;SDS011;57119;52.516;13.508;2022-11-20T03:11:44;22.67;;;9.07;;
69822;SDS011;57119;52.516;13.508;2022-11-20T03:14:09;20.15;;;8.75;;
69822;SDS011;57119;52.516;13.508;2022-11-20T03:16:34;22.27;;;9.05;;
69822;SDS011;57119;52.516;13.508;2022-11-20T03:19:00;18.30;;;8.27;;
69822;SDS011;57119;52.516;13.508;2022-11-20T03:21:26;19.43;;;8.23;;
69822;SDS011;57119;52.516;13.508;2022-11-20T03:23:52;18.90;;;8.43;;
69822;SDS011;57119;52.516;13.508;2022-11-20T03:26:23;20.70;;;9.45;;
69822;SDS011;57119;52.516;13.508;2022-11-20T03:28:51;17.67;;;8.55;;
69822;SDS011;57119;52.516;13.508;2022-11-20T03:31:19;19.45;;;8.45;;
69822;SDS011;57119;52.516;13.508;2022-11-20T03:33:46;19.50;;;8.88;;
69822;SDS011;57119;52.516;13.508;2022-11-20T03:36:13;19.88;;;9.70;;
69822;SDS011;57119;52.516;13.508;2022-11-20T03:38:39;16.52;;;7.00;;
69822;SDS011;57119;52.516;13.508;2022-11-20T03:41:10;21.02;;;8.27;;
69822;SDS011;57119;52.516;13.508;2022-11-20T03:43:37;18.42;;;7.90;;
69822;SDS011;57119;52.516;13.508;2022-11-20T03:46:03;20.70;;;9.05;;
69822;SDS011;57119;52.516;13.508;2022-11-20T03:48:29;20.52;;;8.77;;
69822;SDS011;57119;52.516;13.508;2022-11-20T03:53:34;19.23;;;9.10;;
69822;SDS011;57119;52.516;13.508;2022-11-20T03:56:00;20.33;;;10.00;;
69822;SDS011;57119;52.516;13.508;2022-11-20T03:58:25;20.70;;;9.10;;
69822;SDS011;57119;52.516;13.508;2022-11-20T04:00:51;18.20;;;8.43;;
69822;SDS011;57119;52.516;13.508;2022-11-20T04:03:16;17.97;;;8.70;;
69822;SDS011;57119;52.516;13.508;2022-11-20T04:05:41;18.73;;;8.00;;
69822;SDS011;57119;52.516;13.508;2022-11-20T04:08:07;18.13;;;7.73;;
69822;SDS011;57119;52.516;13.508;2022-11-20T04:10:32;20.20;;;9.07;;
69822;SDS011;57119;52.516;13.508;2022-11-20T04:12:58;19.42;;;8.52;;
69822;SDS011;57119;52.516;13.508;2022-11-20T04:15:23;18.10;;;8.83;;
69822;SDS011;57119;52.516;13.508;2022-11-20T04:17:49;19.50;;;8.77;;
69822;SDS011;57119;52.516;13.508;2022-11-20T04:20:14;23.65;;;9.50;;
69822;SDS011;57119;52.516;13.508;2022-11-20T04:22:39;19.40;;;9.07;;
69822;SDS011;57119;52.516;13.508;2022-11-20T04:25:05;18.50;;;8.37;;
69822;SDS011;57119;52.516;13.508;2022-11-20T04:27:30;18.80;;;8.73;;
69822;SDS011;57119;52.516;13.508;2022-11-20T04:29:56;16.83;;;8.33;;
69822;SDS011;57119;52.516;13.508;2022-11-20T04:32:21;18.63;;;8.73;;
69822;SDS011;57119;52.516;13.508;2022-11-20T04:34:47;19.67;;;8.93;;
69822;SDS011;57119;52.516;13.508;2022-11-20T04:37:12;23.20;;;9.70;;
69822;SDS011;57119;52.516;13.508;2022-11-20T04:39:37;19.03;;;9.17;;
69822;SDS011;57119;52.516;13.508;2022-11-20T04:42:03;19.73;;;9.07;;
69822;SDS011;57119;52.516;13.508;2022-11-20T04:44:47;19.67;;;8.88;;
69822;SDS011;57119;52.516;13.508;2022-11-20T04:47:12;19.47;;;8.53;;
69822;SDS011;57119;52.516;13.508;2022-11-20T04:49:37;22.37;;;9.87;;
69822;SDS011;57119;52.516;13.508;2022-11-20T04:52:03;20.03;;;9.30;;
69822;SDS011;57119;52.516;13.508;2022-11-20T04:54:28;21.37;;;8.77;;
69822;SDS011;57119;52.516;13.508;2022-11-20T04:56:53;24.10;;;10.00;;
69822;SDS011;57119;52.516;13.508;2022-11-20T04:59:19;22.40;;;8.17;;
69822;SDS011;57119;52.516;13.508;2022-11-20T05:01:44;18.20;;;8.50;;
69822;SDS011;57119;52.516;13.508;2022-11-20T05:04:09;18.97;;;8.27;;
69822;SDS011;57119;52.516;13.508;2022-11-20T05:06:35;19.77;;;8.60;;
69822;SDS011;57119;52.516;13.508;2022-11-20T05:09:00;21.10;;;9.70;;
69822;SDS011;57119;52.516;13.508;2022-11-20T05:11:27;19.95;;;9.27;;
69822;SDS011;57119;52.516;13.508;2022-11-20T05:13:54;18.00;;;7.85;;
69822;SDS011;57119;52.516;13.508;2022-11-20T05:16:23;21.85;;;9.57;;
69822;SDS011;57119;52.516;13.508;2022-11-20T05:18:49;21.17;;;8.65;;
69822;SDS011;57119;52.516;13.508;2022-11-20T05:21:16;22.30;;;9.68;;
69822;SDS011;57119;52.516;13.508;2022-11-20T05:23:42;23.40;;;10.23;;
69822;SDS011;57119;52.516;13.508;2022-11-20T05:26:11;21.25;;;9.68;;
69822;SDS011;57119;52.516;13.508;2022-11-20T05:28:38;21.35;;;10.40;;
69822;SDS011;57119;52.516;13.508;2022-11-20T05:31:04;24.13;;;9.25;;
69822;SDS011;57119;52.516;13.508;2022-11-20T05:33:34;20.83;;;9.30;;
69822;SDS011;57119;52.516;13.508;2022-11-20T05:36:01;22.30;;;9.65;;
69822;SDS011;57119;52.516;13.508;2022-11-20T05:38:28;19.13;;;9.48;;
69822;SDS011;57119;52.516;13.508;2022-11-20T05:40:53;24.47;;;9.80;;
69822;SDS011;57119;52.516;13.508;2022-11-20T05:43:19;19.75;;;9.88;;
69822;SDS011;57119;52.516;13.508;2022-11-20T05:45:51;22.00;;;9.23;;
69822;SDS011;57119;52.516;13.508;2022-11-20T05:48:20;20.75;;;10.02;;
69822;SDS011;57119;52.516;13.508;2022-11-20T05:50:46;20.27;;;9.02;;
69822;SDS011;57119;52.516;13.508;2022-11-20T05:53:12;20.58;;;9.90;;
69822;SDS011;57119;52.516;13.508;2022-11-20T05:55:37;21.97;;;10.00;;
69822;SDS011;57119;52.516;13.508;2022-11-20T05:58:02;20.10;;;9.70;;
69822;SDS011;57119;52.516;13.508;2022-11-20T06:00:28;19.43;;;9.03;;
69822;SDS011;57119;52.516;13.508;2022-11-20T06:02:53;20.42;;;9.40;;
69822;SDS011;57119;52.516;13.508;2022-11-20T06:05:18;22.60;;;10.27;;
69822;SDS011;57119;52.516;13.508;2022-11-20T06:07:44;20.07;;;9.83;;
69822;SDS011;57119;52.516;13.508;2022-11-20T06:10:09;20.37;;;9.73;;
69822;SDS011;57119;52.516;13.508;2022-11-20T06:12:35;20.57;;;9.97;;
69822;SDS011;57119;52.516;13.508;2022-11-20T06:15:00;21.57;;;10.20;;
69822;SDS011;57119;52.516;13.508;2022-11-20T06:17:25;24.58;;;10.48;;
69822;SDS011;57119;52.516;13.508;2022-11-20T06:19:51;19.97;;;9.17;;
69822;SDS011;57119;52.516;13.508;2022-11-20T06:22:16;21.67;;;10.37;;
69822;SDS011;57119;52.516;13.508;2022-11-20T06:24:42;19.83;;;10.10;;
69822;SDS011;57119;52.516;13.508;2022-11-20T06:27:07;23.70;;;10.67;;
69822;SDS011;57119;52.516;13.508;2022-11-20T06:29:32;19.93;;;9.63;;
69822;SDS011;57119;52.516;13.508;2022-11-20T06:31:58;21.38;;;10.27;;
69822;SDS011;57119;52.516;13.508;2022-11-20T06:34:23;20.30;;;11.10;;
69822;SDS011;57119;52.516;13.508;2022-11-20T06:36:48;23.07;;;10.20;;
69822;SDS011;57119;52.516;13.508;2022-11-20T06:39:14;24.70;;;11.10;;
69822;SDS011;57119;52.516;13.508;2022-11-20T06:41:39;23.63;;;9.80;;
69822;SDS011;57119;52.516;13.508;2022-11-20T06:44:04;21.03;;;9.73;;
69822;SDS011;57119;52.516;13.508;2022-11-20T06:46:30;21.50;;;9.98;;
69822;SDS011;57119;52.516;13.508;2022-11-20T06:48:56;21.43;;;10.10;;
69822;SDS011;57119;52.516;13.508;2022-11-20T06:51:22;21.05;;;9.95;;
69822;SDS011;57119;52.516;13.508;2022-11-20T06:53:48;20.80;;;9.93;;
69822;SDS011;57119;52.516;13.508;2022-11-20T06:56:13;21.17;;;9.75;;
69822;SDS011;57119;52.516;13.508;2022-11-20T06:58:39;21.63;;;10.33;;
69822;SDS011;57119;52.516;13.508;2022-11-20T07:01:05;23.80;;;9.80;;
69822;SDS011;57119;52.516;13.508;2022-11-20T07:03:36;20.23;;;8.98;;
69822;SDS011;57119;52.516;13.508;2022-11-20T07:06:02;24.17;;;11.10;;
69822;SDS011;57119;52.516;13.508;2022-11-20T07:08:28;24.63;;;10.37;;
69822;SDS011;57119;52.516;13.508;2022-11-20T07:10:56;22.17;;;10.68;;
69822;SDS011;57119;52.516;13.508;2022-11-20T07:13:26;20.90;;;10.50;;
69822;SDS011;57119;52.516;13.508;2022-11-20T07:15:52;21.05;;;10.38;;
69822;SDS011;57119;52.516;13.508;2022-11-20T07:18:17;21.43;;;10.43;;
69822;SDS011;57119;52.516;13.508;2022-11-20T07:20:43;21.00;;;9.73;;
69822;SDS011;57119;52.516;13.508;2022-11-20T07:23:08;22.20;;;11.17;;
69822;SDS011;57119;52.516;13.508;2022-11-20T07:25:34;24.43;;;10.43;;
69822;SDS011;57119;52.516;13.508;2022-11-20T07:27:59;22.17;;;9.90;;
69822;SDS011;57119;52.516;13.508;2022-11-20T07:30:26;20.42;;;9.57;;
69822;SDS011;57119;52.516;13.508;2022-11-20T07:32:55;18.20;;;9.60;;
69822;SDS011;57119;52.516;13.508;2022-11-20T07:35:21;18.38;;;8.52;;
69822;SDS011;57119;52.516;13.508;2022-11-20T07:37:48;21.42;;;9.77;;
69822;SDS011;57119;52.516;13.508;2022-11-20T07:40:14;22.58;;;9.43;;
69822;SDS011;57119;52.516;13.508;2022-11-20T07:42:53;25.90;;;10.13;;
69822;SDS011;57119;52.516;13.508;2022-11-20T07:45:20;21.48;;;8.98;;
69822;SDS011;57119;52.516;13.508;2022-11-20T07:47:48;20.13;;;10.07;;
69822;SDS011;57119;52.516;13.508;2022-11-20T07:50:13;23.50;;;10.67;;
69822;SDS011;57119;52.516;13.508;2022-11-20T07:52:39;24.63;;;10.45;;
69822;SDS011;57119;52.516;13.508;2022-11-20T07:55:05;19.00;;;8.70;;
69822;SDS011;57119;52.516;13.508;2022-11-20T07:57:31;21.83;;;10.13;;
69822;SDS011;57119;52.516;13.508;2022-11-20T07:59:57;20.17;;;9.32;;
69822;SDS011;57119;52.516;13.508;2022-11-20T08:02:22;19.83;;;9.33;;
69822;SDS011;57119;52.516;13.508;2022-11-20T08:04:47;18.73;;;8.67;;
69822;SDS011;57119;52.516;13.508;2022-11-20T08:07:13;21.13;;;9.20;;
69822;SDS011;57119;52.516;13.508;2022-11-20T08:09:38;24.53;;;9.97;;
69822;SDS011;57119;52.516;13.508;2022-11-20T08:12:04;19.63;;;8.70;;
69822;SDS011;57119;52.516;13.508;2022-11-20T08:14:47;21.52;;;9.30;;
69822;SDS011;57119;52.516;13.508;2022-11-20T08:17:13;21.60;;;10.00;;
69822;SDS011;57119;52.516;13.508;2022-11-20T08:19:38;20.33;;;9.47;;
69822;SDS011;57119;52.516;13.508;2022-11-20T08:22:03;22.88;;;10.43;;
69822;SDS011;57119;52.516;13.508;2022-11-20T08:24:29;21.80;;;9.20;;
69822;SDS011;57119;52.516;13.508;2022-11-20T08:26:56;22.70;;;10.37;;
69822;SDS011;57119;52.516;13.508;2022-11-20T08:29:24;22.70;;;10.18;;
69822;SDS011;57119;52.516;13.508;2022-11-20T08:31:49;20.80;;;9.57;;
69822;SDS011;57119;52.516;13.508;2022-11-20T08:34:14;21.20;;;10.40;;
69822;SDS011;57119;52.516;13.508;2022-11-20T08:36:40;22.67;;;10.10;;
69822;SDS011;57119;52.516;13.508;2022-11-20T08:39:05;21.53;;;10.80;;
69822;SDS011;57119;52.516;13.508;2022-11-20T08:41:31;20.67;;;10.45;;
69822;SDS011;57119;52.516;13.508;2022-11-20T08:44:02;21.60;;;9.30;;
69822;SDS011;57119;52.516;13.508;2022-11-20T08:46:36;19.05;;;9.32;;
69822;SDS011;57119;52.516;13.508;2022-11-20T08:49:03;20.92;;;8.75;;
69822;SDS011;57119;52.516;13.508;2022-11-20T08:51:29;22.45;;;8.48;;
69822;SDS011;57119;52.516;13.508;2022-11-20T08:53:55;22.80;;;9.40;;
69822;SDS011;57119;52.516;13.508;2022-11-20T08:56:20;27.43;;;10.17;;
69822;SDS011;57119;52.516;13.508;2022-11-20T08:58:45;24.20;;;11.10;;
69822;SDS011;57119;52.516;13.508;2022-11-20T09:01:11;20.52;;;10.73;;
69822;SDS011;57119;52.516;13.508;2022-11-20T09:03:36;23.07;;;10.50;;
69822;SDS011;57119;52.516;13.508;2022-11-20T09:06:03;23.40;;;10.70;;
69822;SDS011;57119;52.516;13.508;2022-11-20T09:08:30;27.75;;;12.38;;
69822;SDS011;57119;52.516;13.508;2022-11-20T09:10:56;22.13;;;9.93;;
69822;SDS011;57119;52.516;13.508;2022-11-20T09:13:22;21.60;;;9.88;;
69822;SDS011;57119;52.516;13.508;2022-11-20T09:16:01;19.33;;;10.02;;
69822;SDS011;57119;52.516;13.508;2022-11-20T09:18:29;20.35;;;9.70;;
69822;SDS011;57119;52.516;13.508;2022-11-20T09:20:59;22.15;;;9.85;;
69822;SDS011;57119;52.516;13.508;2022-11-20T09:23:26;22.27;;;10.45;;
69822;SDS011;57119;52.516;13.508;2022-11-20T09:25:55;22.63;;;9.60;;
69822;SDS011;57119;52.516;13.508;2022-11-20T09:28:24;21.17;;;8.85;;
69822;SDS011;57119;52.516;13.508;2022-11-20T09:30:50;20.30;;;10.15;;
69822;SDS011;57119;52.516;13.508;2022-11-20T09:33:15;20.87;;;10.03;;
69822;SDS011;57119;52.516;13.508;2022-11-20T09:35:41;21.63;;;10.17;;
69822;SDS011;57119;52.516;13.508;2022-11-20T09:38:08;22.30;;;10.32;;
69822;SDS011;57119;52.516;13.508;2022-11-20T09:40:36;24.27;;;10.07;;
69822;SDS011;57119;52.516;13.508;2022-11-20T09:43:11;19.38;;;10.07;;
69822;SDS011;57119;52.516;13.508;2022-11-20T09:48:32;18.55;;;9.98;;
69822;SDS011;57119;52.516;13.508;2022-11-20T09:51:08;20.90;;;8.63;;
69822;SDS011;57119;52.516;13.508;2022-11-20T09:56:36;19.67;;;9.90;;
69822;SDS011;57119;52.516;13.508;2022-11-20T09:59:04;20.77;;;10.50;;
69822;SDS011;57119;52.516;13.508;2022-11-20T10:01:34;21.25;;;10.23;;
69822;SDS011;57119;52.516;13.508;2022-11-20T10:04:02;21.88;;;9.98;;
69822;SDS011;57119;52.516;13.508;2022-11-20T10:06:32;18.38;;;10.02;;
69822;SDS011;57119;52.516;13.508;2022-11-20T10:09:24;20.40;;;10.63;;
69822;SDS011;57119;52.516;13.508;2022-11-20T10:25:38;18.05;;;8.73;;
69822;SDS011;57119;52.516;13.508;2022-11-20T10:31:11;17.05;;;7.95;;
69822;SDS011;57119;52.516;13.508;2022-11-20T10:33:49;17.60;;;8.88;;
69822;SDS011;57119;52.516;13.508;2022-11-20T10:36:19;18.63;;;9.48;;
69822;SDS011;57119;52.516;13.508;2022-11-20T10:38:50;19.48;;;9.63;;
69822;SDS011;57119;52.516;13.508;2022-11-20T10:41:27;16.52;;;8.18;;
69822;SDS011;57119;52.516;13.508;2022-11-20T10:44:01;18.42;;;7.80;;
69822;SDS011;57119;52.516;13.508;2022-11-20T10:46:44;18.95;;;9.38;;
69822;SDS011;57119;52.516;13.508;2022-11-20T10:49:14;21.58;;;10.02;;
69822;SDS011;57119;52.516;13.508;2022-11-20T10:54:24;20.63;;;8.90;;
69822;SDS011;57119;52.516;13.508;2022-11-20T10:57:00;19.80;;;9.63;;
69822;SDS011;57119;52.516;13.508;2022-11-20T11:02:23;19.83;;;9.70;;
69822;SDS011;57119;52.516;13.508;2022-11-20T11:04:55;18.80;;;9.85;;
69822;SDS011;57119;52.516;13.508;2022-11-20T11:07:24;18.80;;;9.20;;
69822;SDS011;57119;52.516;13.508;2022-11-20T11:09:54;21.83;;;10.35;;
69822;SDS011;57119;52.516;13.508;2022-11-20T11:12:24;18.60;;;10.50;;
69822;SDS011;57119;52.516;13.508;2022-11-20T11:14:53;20.80;;;10.77;;
69822;SDS011;57119;52.516;13.508;2022-11-20T11:17:24;17.75;;;9.57;;
69822;SDS011;57119;52.516;13.508;2022-11-20T11:19:59;19.10;;;10.18;;
69822;SDS011;57119;52.516;13.508;2022-11-20T11:22:46;20.80;;;9.47;;
69822;SDS011;57119;52.516;13.508;2022-11-20T11:28:00;19.38;;;9.27;;
69822;SDS011;57119;52.516;13.508;2022-11-20T11:30:28;18.15;;;7.97;;
69822;SDS011;57119;52.516;13.508;2022-11-20T11:33:05;18.55;;;9.82;;
69822;SDS011;57119;52.516;13.508;2022-11-20T11:35:38;17.87;;;8.57;;
69822;SDS011;57119;52.516;13.508;2022-11-20T11:38:14;19.67;;;9.57;;
69822;SDS011;57119;52.516;13.508;2022-11-20T11:40:42;17.02;;;8.77;;
69822;SDS011;57119;52.516;13.508;2022-11-20T11:43:16;15.05;;;7.75;;
69822;SDS011;57119;52.516;13.508;2022-11-20T11:46:25;17.63;;;9.02;;
69822;SDS011;57119;52.516;13.508;2022-11-20T11:51:24;19.95;;;9.55;;
69822;SDS011;57119;52.516;13.508;2022-11-20T11:53:54;20.40;;;10.07;;
69822;SDS011;57119;52.516;13.508;2022-11-20T11:56:21;19.92;;;8.43;;
69822;SDS011;57119;52.516;13.508;2022-11-20T11:58:47;20.98;;;9.45;;
69822;SDS011;57119;52.516;13.508;2022-11-20T12:07:15;19.23;;;9.35;;
69822;SDS011;57119;52.516;13.508;2022-11-20T12:09:46;17.15;;;8.10;;
69822;SDS011;57119;52.516;13.508;2022-11-20T12:12:24;14.80;;;7.25;;
69822;SDS011;57119;52.516;13.508;2022-11-20T12:14:55;19.65;;;9.30;;
69822;SDS011;57119;52.516;13.508;2022-11-20T12:17:21;23.48;;;10.07;;
69822;SDS011;57119;52.516;13.508;2022-11-20T12:19:46;18.70;;;9.43;;
69822;SDS011;57119;52.516;13.508;2022-11-20T12:25:15;19.73;;;9.23;;
69822;SDS011;57119;52.516;13.508;2022-11-20T12:27:54;19.10;;;9.80;;
69822;SDS011;57119;52.516;13.508;2022-11-20T12:30:36;24.55;;;9.40;;
69822;SDS011;57119;52.516;13.508;2022-11-20T12:44:38;20.10;;;9.13;;
69822;SDS011;57119;52.516;13.508;2022-11-20T12:50:32;18.83;;;9.52;;
69822;SDS011;57119;52.516;13.508;2022-11-20T12:53:04;18.70;;;8.70;;
69822;SDS011;57119;52.516;13.508;2022-11-20T12:55:36;17.92;;;8.70;;
69822;SDS011;57119;52.516;13.508;2022-11-20T13:06:57;16.93;;;7.80;;
69822;SDS011;57119;52.516;13.508;2022-11-20T13:09:23;16.50;;;7.80;;
69822;SDS011;57119;52.516;13.508;2022-11-20T13:12:00;13.82;;;6.90;;
69822;SDS011;57119;52.516;13.508;2022-11-20T13:14:39;15.02;;;6.80;;
69822;SDS011;57119;52.516;13.508;2022-11-20T13:17:51;14.23;;;7.15;;
69822;SDS011;57119;52.516;13.508;2022-11-20T13:20:01;16.33;;;7.80;;
69822;SDS011;57119;52.516;13.508;2022-11-20T13:22:51;14.80;;;6.85;;
69822;SDS011;57119;52.516;13.508;2022-11-20T13:27:52;13.70;;;6.15;;
69822;SDS011;57119;52.516;13.508;2022-11-20T13:30:19;11.25;;;5.28;;
69822;SDS011;57119;52.516;13.508;2022-11-20T13:32:56;12.60;;;5.30;;
69822;SDS011;57119;52.516;13.508;2022-11-20T13:35:40;12.75;;;5.65;;
69822;SDS011;57119;52.516;13.508;2022-11-20T13:38:10;13.38;;;5.47;;
69822;SDS011;57119;52.516;13.508;2022-11-20T13:43:26;11.95;;;5.57;;
69822;SDS011;57119;52.516;13.508;2022-11-20T13:46:08;13.43;;;5.67;;
69822;SDS011;57119;52.516;13.508;2022-11-20T13:48:39;14.52;;;6.05;;
69822;SDS011;57119;52.516;13.508;2022-11-20T13:56:51;9.65;;;4.10;;
69822;SDS011;57119;52.516;13.508;2022-11-20T14:02:33;12.55;;;5.60;;
69822;SDS011;57119;52.516;13.508;2022-11-20T14:04:58;13.67;;;5.43;;
69822;SDS011;57119;52.516;13.508;2022-11-20T14:07:27;13.88;;;5.47;;
69822;SDS011;57119;52.516;13.508;2022-11-20T14:09:59;11.55;;;5.45;;
69822;SDS011;57119;52.516;13.508;2022-11-20T14:12:29;12.50;;;6.63;;
69822;SDS011;57119;52.516;13.508;2022-11-20T14:14:56;17.45;;;9.65;;
69822;SDS011;57119;52.516;13.508;2022-11-20T14:19:53;13.82;;;6.55;;
69822;SDS011;57119;52.516;13.508;2022-11-20T14:22:24;12.45;;;5.13;;
69822;SDS011;57119;52.516;13.508;2022-11-20T14:25:35;15.68;;;5.63;;
69822;SDS011;57119;52.516;13.508;2022-11-20T14:27:39;14.05;;;5.88;;
69822;SDS011;57119;52.516;13.508;2022-11-20T14:30:16;13.48;;;5.68;;
69822;SDS011;57119;52.516;13.508;2022-11-20T14:32:44;13.90;;;5.40;;
69822;SDS011;57119;52.516;13.508;2022-11-20T14:35:14;12.88;;;6.13;;
69822;SDS011;57119;52.516;13.508;2022-11-20T14:37:44;12.65;;;5.53;;
69822;SDS011;57119;52.516;13.508;2022-11-20T14:40:26;13.60;;;5.85;;
69822;SDS011;57119;52.516;13.508;2022-11-20T14:42:57;12.15;;;5.45;;
69822;SDS011;57119;52.516;13.508;2022-11-20T14:45:23;15.25;;;6.45;;
69822;SDS011;57119;52.516;13.508;2022-11-20T14:47:50;13.57;;;6.50;;
69822;SDS011;57119;52.516;13.508;2022-11-20T14:50:25;15.27;;;6.80;;
69822;SDS011;57119;52.516;13.508;2022-11-20T14:52:56;13.73;;;7.05;;
69822;SDS011;57119;52.516;13.508;2022-11-20T14:58:01;15.95;;;6.70;;
69822;SDS011;57119;52.516;13.508;2022-11-20T15:00:29;14.13;;;6.68;;
69822;SDS011;57119;52.516;13.508;2022-11-20T15:02:55;14.23;;;7.07;;
69822;SDS011;57119;52.516;13.508;2022-11-20T15:05:25;13.73;;;6.32;;
69822;SDS011;57119;52.516;13.508;2022-11-20T15:08:08;13.75;;;6.53;;
69822;SDS011;57119;52.516;13.508;2022-11-20T15:10:35;14.57;;;6.07;;
69822;SDS011;57119;52.516;13.508;2022-11-20T15:13:05;14.55;;;5.65;;
69822;SDS011;57119;52.516;13.508;2022-11-20T15:18:17;11.10;;;4.95;;
69822;SDS011;57119;52.516;13.508;2022-11-20T15:20:45;15.48;;;5.75;;
69822;SDS011;57119;52.516;13.508;2022-11-20T15:23:12;15.13;;;5.68;;
69822;SDS011;57119;52.516;13.508;2022-11-20T15:25:39;11.30;;;5.47;;
69822;SDS011;57119;52.516;13.508;2022-11-20T15:28:08;11.88;;;5.68;;
69822;SDS011;57119;52.516;13.508;2022-11-20T15:30:55;14.25;;;6.00;;
69822;SDS011;57119;52.516;13.508;2022-11-20T15:33:21;13.30;;;5.87;;
69822;SDS011;57119;52.516;13.508;2022-11-20T15:35:46;13.40;;;6.23;;
69822;SDS011;57119;52.516;13.508;2022-11-20T15:38:12;13.75;;;6.68;;
69822;SDS011;57119;52.516;13.508;2022-11-20T15:40:37;16.60;;;6.33;;
69822;SDS011;57119;52.516;13.508;2022-11-20T15:43:03;12.90;;;6.47;;
69822;SDS011;57119;52.516;13.508;2022-11-20T15:45:33;15.33;;;6.27;;
69822;SDS011;57119;52.516;13.508;2022-11-20T15:48:03;13.68;;;6.43;;
69822;SDS011;57119;52.516;13.508;2022-11-20T15:50:34;12.02;;;5.60;;
69822;SDS011;57119;52.516;13.508;2022-11-20T15:53:02;14.48;;;6.40;;
69822;SDS011;57119;52.516;13.508;2022-11-20T15:55:28;13.70;;;6.20;;
69822;SDS011;57119;52.516;13.508;2022-11-20T15:57:54;13.20;;;5.90;;
69822;SDS011;57119;52.516;13.508;2022-11-20T16:00:19;15.55;;;6.80;;
69822;SDS011;57119;52.516;13.508;2022-11-20T16:02:44;13.47;;;6.40;;